createdAt,value
2022-10-15T00:01:08.263Z,100.00
2022-10-15T00:03:39.298Z,100.00
2022-10-15T00:06:09.232Z,100.00
2022-10-15T00:08:37.382Z,100.00
2022-10-15T00:11:07.679Z,100.00
2022-10-15T00:13:36.057Z,100.00
2022-10-15T00:16:04.594Z,100.00
2022-10-15T00:18:32.627Z,100.00
2022-10-15T00:21:01.937Z,100.00
2022-10-15T00:23:29.907Z,100.00
2022-10-15T00:26:06.811Z,100.00
2022-10-15T00:28:35.204Z,100.00
2022-10-15T00:31:05.348Z,100.00
2022-10-15T00:33:33.370Z,100.00
2022-10-15T00:36:04.875Z,100.00
2022-10-15T00:38:33.867Z,100.00
2022-10-15T00:41:01.914Z,100.00
2022-10-15T00:43:41.160Z,100.00
2022-10-15T00:46:19.010Z,100.00
2022-10-15T00:48:50.347Z,100.00
2022-10-15T00:51:21.886Z,100.00
2022-10-15T00:53:51.416Z,100.00
2022-10-15T00:56:23.302Z,100.00
2022-10-15T00:58:53.463Z,100.00
2022-10-15T01:01:22.041Z,100.00
2022-10-15T01:03:50.481Z,100.00
2022-10-15T01:06:20.043Z,100.00
2022-10-15T01:08:48.167Z,100.00
2022-10-15T01:11:31.866Z,100.00
2022-10-15T01:14:18.083Z,100.00
2022-10-15T01:16:50.793Z,100.00
2022-10-15T01:19:32.768Z,100.00
2022-10-15T01:22:06.889Z,100.00
2022-10-15T01:25:04.946Z,100.00
2022-10-15T01:27:37.279Z,100.00
2022-10-15T01:30:32.194Z,100.00
2022-10-15T01:33:16.265Z,100.00
2022-10-15T01:35:50.721Z,100.00
2022-10-15T01:38:32.063Z,100.00
2022-10-15T01:41:04.939Z,100.00
2022-10-15T01:43:39.264Z,100.00
2022-10-15T01:46:33.143Z,100.00
2022-10-15T01:49:06.336Z,100.00
2022-10-15T01:51:37.909Z,100.00
2022-10-15T01:54:28.593Z,100.00
2022-10-15T01:56:59.944Z,100.00
2022-10-15T01:59:32.436Z,100.00
2022-10-15T02:02:01.789Z,100.00
2022-10-15T02:04:31.782Z,100.00
2022-10-15T02:07:06.182Z,100.00
2022-10-15T02:09:47.049Z,100.00
2022-10-15T02:12:28.891Z,100.00
2022-10-15T02:15:04.679Z,100.00
2022-10-15T02:17:39.999Z,100.00
2022-10-15T02:20:15.463Z,100.00
2022-10-15T02:22:49.327Z,100.00
2022-10-15T02:25:21.685Z,100.00
2022-10-15T02:27:52.555Z,100.00
2022-10-15T02:30:21.308Z,100.00
2022-10-15T02:32:54.946Z,100.00
2022-10-15T02:35:25.013Z,100.00
2022-10-15T02:37:55.330Z,100.00
2022-10-15T02:40:28.417Z,100.00
2022-10-15T02:42:58.046Z,100.00
2022-10-15T02:45:26.014Z,100.00
2022-10-15T02:47:55.575Z,100.00
2022-10-15T02:50:25.523Z,100.00
2022-10-15T02:52:53.949Z,100.00
2022-10-15T02:55:22.074Z,100.00
2022-10-15T02:57:50.027Z,100.00
2022-10-15T03:00:18.657Z,100.00
2022-10-15T03:02:50.300Z,100.00
2022-10-15T03:05:21.606Z,100.00
2022-10-15T03:07:50.405Z,100.00
2022-10-15T03:10:19.923Z,100.00
2022-10-15T03:12:47.924Z,100.00
2022-10-15T03:15:16.144Z,100.00
2022-10-15T03:17:46.339Z,100.00
2022-10-15T03:20:17.641Z,100.00
2022-10-15T03:22:47.070Z,100.00
2022-10-15T03:25:15.119Z,100.00
2022-10-15T03:27:43.351Z,100.00
2022-10-15T03:30:23.494Z,100.00
2022-10-15T03:32:52.819Z,100.00
2022-10-15T03:35:20.876Z,100.00
2022-10-15T03:37:50.463Z,100.00
2022-10-15T03:40:18.641Z,100.00
2022-10-15T03:42:51.819Z,100.00
2022-10-15T03:45:25.241Z,100.00
2022-10-15T03:48:06.769Z,100.00
2022-10-15T03:50:36.024Z,100.00
2022-10-15T03:53:06.586Z,100.00
2022-10-15T03:55:35.187Z,100.00
2022-10-15T03:58:03.196Z,100.00
2022-10-15T04:00:31.385Z,100.00
2022-10-15T04:03:02.682Z,100.00
2022-10-15T04:05:31.350Z,100.00
2022-10-15T04:08:07.925Z,100.00
2022-10-15T04:10:40.000Z,100.00
2022-10-15T04:13:08.359Z,100.00
2022-10-15T04:15:40.110Z,100.00
2022-10-15T04:18:11.653Z,100.00
2022-10-15T04:20:42.648Z,100.00
2022-10-15T04:23:18.898Z,100.00
2022-10-15T04:26:07.356Z,100.00
2022-10-15T04:28:35.503Z,100.00
2022-10-15T04:31:04.109Z,100.00
2022-10-15T04:33:32.514Z,100.00
2022-10-15T04:36:03.648Z,100.00
2022-10-15T04:38:48.297Z,100.00
2022-10-15T04:41:23.094Z,100.00
2022-10-15T04:44:11.312Z,100.00
2022-10-15T04:46:40.115Z,100.00
2022-10-15T04:49:26.007Z,100.00
2022-10-15T04:51:54.368Z,100.00
2022-10-15T04:54:30.052Z,100.00
2022-10-15T04:57:04.965Z,100.00
2022-10-15T04:59:33.892Z,100.00
2022-10-15T05:02:28.099Z,100.00
2022-10-15T05:05:09.713Z,100.00
2022-10-15T05:07:47.147Z,100.00
2022-10-15T05:10:18.695Z,100.00
2022-10-15T05:12:49.379Z,100.00
2022-10-15T05:15:28.547Z,100.00
2022-10-15T05:17:57.692Z,100.00
2022-10-15T05:20:32.546Z,100.00
2022-10-15T05:23:00.591Z,100.00
2022-10-15T05:25:35.325Z,100.00
2022-10-15T05:28:03.340Z,100.00
2022-10-15T05:30:31.333Z,100.00
2022-10-15T05:32:59.460Z,100.00
2022-10-15T05:35:27.451Z,100.00
2022-10-15T05:38:05.499Z,100.00
2022-10-15T05:40:35.418Z,100.00
2022-10-15T05:43:16.930Z,100.00
2022-10-15T05:45:44.866Z,100.00
2022-10-15T05:48:12.904Z,100.00
2022-10-15T05:50:40.841Z,100.00
2022-10-15T05:53:12.717Z,100.00
2022-10-15T05:55:50.057Z,100.00
2022-10-15T05:58:17.988Z,100.00
2022-10-15T06:00:45.928Z,100.00
2022-10-15T06:03:15.269Z,100.00
2022-10-15T06:05:43.189Z,100.00
2022-10-15T06:08:11.213Z,100.00
2022-10-15T06:10:39.893Z,100.00
2022-10-15T06:13:09.227Z,100.00
2022-10-15T06:15:40.392Z,100.00
2022-10-15T06:18:10.610Z,100.00
2022-10-15T06:20:40.264Z,100.00
2022-10-15T06:23:08.198Z,100.00
2022-10-15T06:25:37.087Z,100.00
2022-10-15T06:28:06.959Z,100.00
2022-10-15T06:30:43.971Z,100.00
2022-10-15T06:35:45.241Z,100.00
2022-10-15T06:38:13.220Z,100.00
2022-10-15T06:40:41.145Z,100.00
2022-10-15T06:43:10.890Z,100.00
2022-10-15T06:45:41.684Z,100.00
2022-10-15T06:48:19.726Z,100.00
2022-10-15T06:50:47.695Z,100.00
2022-10-15T06:53:16.721Z,100.00
2022-10-15T06:55:44.915Z,100.00
2022-10-15T06:58:12.852Z,100.00
2022-10-15T07:00:40.850Z,100.00
2022-10-15T07:03:09.474Z,99.84
2022-10-15T07:05:38.873Z,100.00
2022-10-15T07:08:06.875Z,99.90
2022-10-15T07:10:35.082Z,99.95
2022-10-15T07:13:03.560Z,99.33
2022-10-15T07:15:31.493Z,99.80
2022-10-15T07:18:01.600Z,99.27
2022-10-15T07:20:30.815Z,98.97
2022-10-15T07:23:03.545Z,98.88
2022-10-15T07:25:32.812Z,98.99
2022-10-15T07:28:00.699Z,99.15
2022-10-15T07:30:29.092Z,99.13
2022-10-15T07:32:57.977Z,99.17
2022-10-15T07:35:26.568Z,99.49
2022-10-15T07:37:54.693Z,99.51
2022-10-15T07:40:24.180Z,99.75
2022-10-15T07:42:56.021Z,99.78
2022-10-15T07:45:26.368Z,100.00
2022-10-15T07:47:54.758Z,100.00
2022-10-15T07:50:23.199Z,99.63
2022-10-15T07:52:51.109Z,99.50
2022-10-15T07:55:19.085Z,99.08
2022-10-15T07:57:48.410Z,99.18
2022-10-15T08:00:16.683Z,98.85
2022-10-15T08:02:45.527Z,99.42
2022-10-15T08:05:15.435Z,99.10
2022-10-15T08:07:43.652Z,99.05
2022-10-15T08:10:13.412Z,99.44
2022-10-15T08:12:41.393Z,99.15
2022-10-15T08:15:11.827Z,99.09
2022-10-15T08:17:39.762Z,98.55
2022-10-15T08:20:08.383Z,98.05
2022-10-15T08:22:36.800Z,98.09
2022-10-15T08:25:05.440Z,98.74
2022-10-15T08:27:33.427Z,98.28
2022-10-15T08:30:05.782Z,97.91
2022-10-15T08:32:35.274Z,97.60
2022-10-15T08:35:03.196Z,97.14
2022-10-15T08:37:33.603Z,96.85
2022-10-15T08:40:01.644Z,96.22
2022-10-15T08:42:37.143Z,95.83
2022-10-15T08:45:09.113Z,96.12
2022-10-15T08:47:47.027Z,95.70
2022-10-15T08:50:25.633Z,95.63
2022-10-15T08:52:56.749Z,95.63
2022-10-15T08:58:04.599Z,94.22
2022-10-15T09:00:41.697Z,94.55
2022-10-15T09:03:33.123Z,94.12
2022-10-15T09:06:11.060Z,93.61
2022-10-15T09:08:49.911Z,93.42
2022-10-15T09:11:24.899Z,93.39
2022-10-15T09:13:53.565Z,92.88
2022-10-15T09:16:28.947Z,93.08
2022-10-15T09:19:01.736Z,92.91
2022-10-15T09:21:31.605Z,93.31
2022-10-15T09:24:03.131Z,93.25
2022-10-15T09:26:42.526Z,93.94
2022-10-15T09:29:19.352Z,92.93
2022-10-15T09:31:54.372Z,92.42
2022-10-15T09:34:38.755Z,93.36
2022-10-15T09:37:13.957Z,92.95
2022-10-15T09:40:00.156Z,91.51
2022-10-15T09:42:31.479Z,90.94
2022-10-15T09:45:02.302Z,91.01
2022-10-15T09:47:32.920Z,91.03
2022-10-15T09:50:07.939Z,90.35
2022-10-15T09:52:50.342Z,89.56
2022-10-15T09:55:34.167Z,89.01
2022-10-15T09:58:05.947Z,88.55
2022-10-15T10:00:56.433Z,88.11
2022-10-15T10:03:27.428Z,88.72
2022-10-15T10:06:07.409Z,87.81
2022-10-15T10:08:40.356Z,87.20
2022-10-15T10:11:10.990Z,86.67
2022-10-15T10:13:46.179Z,86.03
2022-10-15T10:16:15.429Z,86.09
2022-10-15T10:18:51.006Z,86.35
2022-10-15T10:21:26.612Z,84.68
2022-10-15T10:23:54.612Z,85.85
2022-10-15T10:26:23.027Z,85.53
2022-10-15T10:28:56.979Z,84.19
2022-10-15T10:31:32.243Z,82.21
2022-10-15T10:34:02.565Z,81.62
2022-10-15T10:36:37.328Z,80.10
2022-10-15T10:39:25.357Z,78.85
2022-10-15T10:41:55.352Z,79.17
2022-10-15T10:44:29.508Z,77.78
2022-10-15T10:47:13.555Z,76.30
2022-10-15T10:49:44.046Z,77.86
2022-10-15T10:52:28.100Z,78.01
2022-10-15T10:55:03.997Z,77.83
2022-10-15T10:57:45.235Z,78.61
2022-10-15T11:00:17.071Z,77.68
2022-10-15T11:02:50.181Z,76.66
2022-10-15T11:05:23.456Z,76.23
2022-10-15T11:08:03.110Z,75.36
2022-10-15T11:10:36.483Z,76.72
2022-10-15T11:13:21.612Z,76.33
2022-10-15T11:15:57.069Z,76.13
2022-10-15T11:18:38.397Z,75.36
2022-10-15T11:21:18.764Z,75.56
2022-10-15T11:24:11.286Z,74.37
2022-10-15T11:27:09.631Z,76.25
2022-10-15T11:29:49.300Z,76.11
2022-10-15T11:32:42.069Z,77.39
2022-10-15T11:35:59.500Z,75.61
2022-10-15T11:38:36.738Z,75.55
2022-10-15T11:41:27.380Z,74.19
2022-10-15T11:44:05.672Z,73.59
2022-10-15T11:46:44.159Z,73.99
2022-10-15T11:52:37.999Z,74.93
2022-10-15T11:55:12.848Z,74.40
2022-10-15T11:57:44.429Z,72.49
2022-10-15T12:00:24.625Z,72.63
2022-10-15T12:02:55.626Z,72.25
2022-10-15T12:05:30.457Z,71.67
2022-10-15T12:07:58.883Z,71.25
2022-10-15T12:10:43.115Z,64.50
2022-10-15T12:13:27.035Z,66.43
2022-10-15T12:16:05.694Z,66.66
2022-10-15T12:18:40.127Z,67.85
2022-10-15T12:21:32.931Z,67.00
2022-10-15T12:24:01.121Z,67.90
2022-10-15T12:26:34.558Z,69.68
2022-10-15T12:29:07.542Z,68.35
2022-10-15T12:31:48.517Z,69.49
2022-10-15T12:34:32.126Z,71.66
2022-10-15T12:37:06.054Z,69.96
2022-10-15T12:39:51.085Z,68.78
2022-10-15T12:42:27.200Z,68.32
2022-10-15T12:44:57.207Z,67.55
2022-10-15T12:47:48.554Z,64.45
2022-10-15T12:50:20.697Z,66.63
2022-10-15T12:53:00.504Z,67.44
2022-10-15T12:55:34.066Z,67.27
2022-10-15T12:58:04.777Z,66.45
2022-10-15T13:00:43.562Z,65.36
2022-10-15T13:03:26.530Z,67.04
2022-10-15T13:05:55.908Z,66.49
2022-10-15T13:08:38.452Z,67.55
2022-10-15T13:11:07.625Z,66.70
2022-10-15T13:13:36.664Z,65.90
2022-10-15T13:16:09.553Z,65.51
2022-10-15T13:18:37.841Z,65.37
2022-10-15T13:21:07.674Z,64.28
2022-10-15T13:23:37.997Z,64.50
2022-10-15T13:26:17.230Z,66.06
2022-10-15T13:28:46.368Z,64.69
2022-10-15T13:31:21.694Z,64.23
2022-10-15T13:33:55.282Z,62.89
2022-10-15T13:36:26.606Z,63.69
2022-10-15T13:39:01.055Z,62.76
2022-10-15T13:41:32.654Z,64.48
2022-10-15T13:44:02.517Z,63.58
2022-10-15T13:46:34.750Z,64.16
2022-10-15T13:49:04.499Z,63.18
2022-10-15T13:51:40.021Z,63.51
2022-10-15T13:54:11.755Z,62.71
2022-10-15T13:56:47.918Z,60.92
2022-10-15T13:59:20.274Z,60.76
2022-10-15T14:01:53.931Z,60.30
2022-10-15T14:04:24.896Z,60.55
2022-10-15T14:07:01.959Z,60.25
2022-10-15T14:09:33.655Z,60.80
2022-10-15T14:12:03.248Z,59.85
2022-10-15T14:14:35.583Z,60.53
2022-10-15T14:17:07.182Z,59.72
2022-10-15T14:19:37.859Z,60.48
2022-10-15T14:22:07.064Z,60.44
2022-10-15T14:24:36.785Z,60.17
2022-10-15T14:27:07.467Z,60.76
2022-10-15T14:29:41.188Z,59.46
2022-10-15T14:32:27.110Z,58.96
2022-10-15T14:34:56.851Z,60.52
2022-10-15T14:37:42.905Z,58.78
2022-10-15T14:40:17.884Z,58.70
2022-10-15T14:42:47.908Z,59.76
2022-10-15T14:45:22.201Z,59.21
2022-10-15T14:47:53.637Z,60.94
2022-10-15T14:50:22.032Z,61.41
2022-10-15T14:52:52.896Z,61.89
2022-10-15T14:55:33.272Z,62.38
2022-10-15T14:58:08.023Z,63.49
2022-10-15T15:00:41.911Z,63.17
2022-10-15T15:03:16.919Z,64.23
2022-10-15T15:05:47.010Z,65.30
2022-10-15T15:08:15.369Z,65.38
2022-10-15T15:10:44.378Z,66.12
2022-10-15T15:13:13.696Z,65.67
2022-10-15T15:15:42.670Z,65.16
2022-10-15T15:18:11.363Z,66.94
2022-10-15T15:20:43.293Z,65.85
2022-10-15T15:23:17.102Z,65.21
2022-10-15T15:25:45.173Z,64.97
2022-10-15T15:28:15.150Z,65.50
2022-10-15T15:30:45.054Z,65.32
2022-10-15T15:33:14.942Z,65.13
2022-10-15T15:35:51.116Z,65.27
2022-10-15T15:38:19.751Z,65.31
2022-10-15T15:40:48.169Z,64.85
2022-10-15T15:43:17.976Z,64.18
2022-10-15T15:45:47.479Z,63.94
2022-10-15T15:48:15.474Z,63.43
2022-10-15T15:50:44.840Z,63.19
2022-10-15T15:53:13.724Z,62.82
2022-10-15T15:55:41.634Z,63.09
2022-10-15T15:58:09.557Z,62.57
2022-10-15T16:00:37.581Z,63.23
2022-10-15T16:03:05.520Z,63.45
2022-10-15T16:05:33.449Z,62.95
2022-10-15T16:08:02.845Z,63.11
2022-10-15T16:10:30.776Z,63.35
2022-10-15T16:12:58.660Z,63.38
2022-10-15T16:15:26.606Z,62.17
2022-10-15T16:17:55.511Z,62.26
2022-10-15T16:20:23.725Z,62.94
2022-10-15T16:22:51.941Z,63.48
2022-10-15T16:25:23.312Z,66.08
2022-10-15T16:27:56.709Z,68.41
2022-10-15T16:30:24.684Z,69.71
2022-10-15T16:32:52.591Z,71.15
2022-10-15T16:35:20.560Z,72.05
2022-10-15T16:37:48.570Z,72.53
2022-10-15T16:40:17.551Z,73.31
2022-10-15T16:42:46.834Z,73.71
2022-10-15T16:45:15.237Z,73.71
2022-10-15T16:47:43.194Z,74.18
2022-10-15T16:50:11.269Z,74.45
2022-10-15T16:52:39.230Z,74.87
2022-10-15T16:55:07.734Z,75.63
2022-10-15T16:57:35.641Z,75.77
2022-10-15T17:00:05.749Z,76.30
2022-10-15T17:02:33.804Z,76.73
2022-10-15T17:05:01.737Z,77.33
2022-10-15T17:07:29.766Z,77.74
2022-10-15T17:09:57.725Z,78.15
2022-10-15T17:12:25.927Z,78.30
2022-10-15T17:14:54.183Z,78.48
2022-10-15T17:17:23.514Z,79.07
2022-10-15T17:19:51.421Z,79.46
2022-10-15T17:22:21.061Z,79.31
2022-10-15T17:24:50.387Z,79.64
2022-10-15T17:27:19.115Z,79.63
2022-10-15T17:29:47.059Z,80.20
2022-10-15T17:32:14.962Z,80.48
2022-10-15T17:34:44.315Z,80.41
2022-10-15T17:37:14.248Z,81.22
2022-10-15T17:39:42.413Z,81.02
2022-10-15T17:42:10.450Z,81.22
2022-10-15T17:44:38.359Z,81.51
2022-10-15T17:47:07.416Z,82.10
2022-10-15T17:49:35.328Z,81.89
2022-10-15T17:52:04.788Z,81.99
2022-10-15T17:54:33.180Z,82.64
2022-10-15T17:57:01.156Z,82.86
2022-10-15T17:59:29.332Z,83.20
2022-10-15T18:01:59.877Z,84.20
2022-10-15T18:04:28.887Z,84.65
2022-10-15T18:06:56.913Z,85.88
2022-10-15T18:09:27.042Z,86.33
2022-10-15T18:12:00.499Z,86.06
2022-10-15T18:14:30.221Z,85.79
2022-10-15T18:16:58.535Z,85.72
2022-10-15T18:19:26.882Z,86.68
2022-10-15T18:21:55.469Z,87.04
2022-10-15T18:24:24.537Z,87.13
2022-10-15T18:26:54.501Z,89.65
2022-10-15T18:29:25.217Z,91.86
2022-10-15T18:31:57.388Z,91.46
2022-10-15T18:34:27.775Z,90.56
2022-10-15T18:36:56.145Z,89.41
2022-10-15T18:39:24.856Z,88.68
2022-10-15T18:41:54.351Z,88.35
2022-10-15T18:44:23.362Z,88.36
2022-10-15T18:46:52.304Z,87.95
2022-10-15T18:49:21.671Z,87.79
2022-10-15T18:51:51.883Z,87.61
2022-10-15T18:54:20.263Z,87.48
2022-10-15T18:56:48.539Z,86.99
2022-10-15T18:59:21.507Z,86.87
2022-10-15T19:01:50.264Z,87.28
2022-10-15T19:04:20.043Z,87.58
2022-10-15T19:06:50.180Z,87.78
2022-10-15T19:09:19.949Z,87.84
2022-10-15T19:11:50.079Z,87.23
2022-10-15T19:14:18.238Z,87.17
2022-10-15T19:16:48.266Z,86.94
2022-10-15T19:19:18.684Z,87.20
2022-10-15T19:21:48.067Z,87.05
2022-10-15T19:24:17.593Z,87.38
2022-10-15T19:26:46.587Z,87.37
2022-10-15T19:29:14.694Z,87.35
2022-10-15T19:31:45.654Z,86.78
2022-10-15T19:34:15.560Z,87.03
2022-10-15T19:36:46.543Z,86.90
2022-10-15T19:39:17.312Z,86.86
2022-10-15T19:41:46.192Z,86.94
2022-10-15T19:44:16.955Z,86.77
2022-10-15T19:46:46.188Z,86.39
2022-10-15T19:49:16.010Z,86.34
2022-10-15T19:51:44.264Z,86.51
2022-10-15T19:54:12.240Z,86.91
2022-10-15T19:56:40.241Z,86.93
2022-10-15T19:59:08.499Z,86.77
2022-10-15T20:01:37.934Z,85.82
2022-10-15T20:04:07.302Z,84.96
2022-10-15T20:06:39.315Z,84.26
2022-10-15T20:09:08.911Z,84.48
2022-10-15T20:11:37.909Z,85.24
2022-10-15T20:14:06.230Z,85.14
2022-10-15T20:16:34.297Z,85.00
2022-10-15T20:19:03.059Z,85.10
2022-10-15T20:21:31.070Z,84.94
2022-10-15T20:24:04.250Z,85.39
2022-10-15T20:26:32.745Z,85.10
2022-10-15T20:29:00.813Z,85.23
2022-10-15T20:31:32.826Z,85.36
2022-10-15T20:34:01.912Z,85.51
2022-10-15T20:36:30.571Z,85.93
2022-10-15T20:39:01.714Z,85.71
2022-10-15T20:41:30.374Z,85.58
2022-10-15T20:43:58.332Z,85.18
2022-10-15T20:46:30.768Z,84.89
2022-10-15T20:49:04.687Z,85.54
2022-10-15T20:51:37.548Z,85.62
2022-10-15T20:54:07.303Z,85.54
2022-10-15T20:56:35.305Z,85.09
2022-10-15T20:59:04.295Z,85.44
2022-10-15T21:01:32.627Z,85.62
2022-10-15T21:04:00.599Z,85.50
2022-10-15T21:06:28.585Z,85.43
2022-10-15T21:08:56.525Z,85.46
2022-10-15T21:11:25.873Z,85.54
2022-10-15T21:13:53.852Z,85.69
2022-10-15T21:16:24.511Z,85.88
2022-10-15T21:18:55.458Z,85.65
2022-10-15T21:21:23.444Z,85.73
2022-10-15T21:23:51.663Z,85.69
2022-10-15T21:26:20.694Z,85.64
2022-10-15T21:28:54.410Z,85.08
2022-10-15T21:31:22.557Z,84.36
2022-10-15T21:33:50.713Z,83.41
2022-10-15T21:36:21.874Z,83.33
2022-10-15T21:38:52.924Z,83.06
2022-10-15T21:41:21.376Z,83.03
2022-10-15T21:46:24.551Z,84.12
2022-10-15T21:48:53.532Z,83.88
2022-10-15T21:51:24.871Z,83.42
2022-10-15T21:53:53.487Z,83.28
2022-10-15T21:56:21.663Z,83.13
2022-10-15T21:58:52.140Z,83.17
2022-10-15T22:01:22.013Z,82.85
2022-10-15T22:03:50.741Z,82.81
2022-10-15T22:06:20.005Z,82.80
2022-10-15T22:08:48.867Z,83.10
2022-10-15T22:11:19.109Z,82.72
2022-10-15T22:13:50.450Z,83.00
2022-10-15T22:16:20.971Z,83.09
2022-10-15T22:18:49.567Z,83.13
2022-10-15T22:21:19.888Z,82.69
2022-10-15T22:23:49.976Z,83.36
2022-10-15T22:26:19.407Z,83.43
2022-10-15T22:28:48.020Z,83.68
2022-10-15T22:31:17.896Z,84.79
2022-10-15T22:33:47.983Z,84.49
2022-10-15T22:36:18.244Z,84.33
2022-10-15T22:38:49.005Z,84.82
2022-10-15T22:41:17.477Z,85.07
2022-10-15T22:43:45.418Z,85.29
2022-10-15T22:46:14.174Z,85.56
2022-10-15T22:48:43.696Z,85.43
2022-10-15T22:51:14.727Z,84.56
2022-10-15T22:53:43.405Z,84.23
2022-10-15T22:56:14.514Z,83.78
2022-10-15T22:58:43.233Z,83.82
2022-10-15T23:01:13.457Z,83.39
2022-10-15T23:03:42.105Z,82.54
2022-10-15T23:06:10.682Z,82.81
2022-10-15T23:08:40.519Z,82.51
2022-10-15T23:11:09.954Z,82.68
2022-10-15T23:13:39.233Z,82.77
2022-10-15T23:16:09.871Z,82.47
2022-10-15T23:18:38.420Z,82.02
2022-10-15T23:21:07.982Z,82.19
2022-10-15T23:23:36.006Z,81.53
2022-10-15T23:26:05.416Z,81.06
2022-10-15T23:28:33.415Z,80.63
2022-10-15T23:31:01.446Z,80.76
2022-10-15T23:33:29.376Z,80.43
2022-10-15T23:35:59.193Z,80.76
2022-10-15T23:38:28.165Z,80.61
2022-10-15T23:41:08.216Z,80.25
2022-10-15T23:43:36.192Z,80.74
2022-10-15T23:46:04.560Z,80.89
2022-10-15T23:48:32.537Z,81.34
2022-10-15T23:51:03.365Z,81.27
2022-10-15T23:53:32.746Z,80.70
2022-10-15T23:56:02.500Z,80.90
2022-10-15T23:58:33.120Z,80.94
